McAlpin, Florida
Current Conditions -  °F | °C
As of 7:55 PM on Saturday 22 Nov 2014 (Local Time) from K24J Reporting Station
Overcast Overcast  
Wind Chill: 64°   Ceiling: 600
Heat Index: 64°   Visibility: 7mi
Dew Point: 64°   Wind: 8mph
Humidity: 100%   Direction: 70°ENE
Pressure: 30.17"   Gusts: NA
Location:  30.14°N, 82.95°W
Report Text: K24J 230055Z AUTO 07007KT 7SM OVC006 18/18 A3017 RMK AO1
Loading
Personal Weather Stations






























Interactive Weather Map New forecast layout! Learn more

10-Day Weather Forecast

Advertisements
Track Severe Weather on mobile